Terminal Aerodrome Forecast
Issued by NWS

Home | Current Version | Previous Version | Text Only | Print | Product List | Glossary On
Versions: 1 2 3 4 5 6 7 8 9 10 11 12 13 14 15 16 17 18
000
FTUS46 KLOX 041400 AAB
TAFBUR
TAF AMD
KBUR 041405Z 0414/0512 VRB05KT P6SM BKN015
     FM041600 16005KT P6SM SKC
     FM041800 18010KT P6SM SKC
     FM050300 VRB05KT P6SM SCT020
     FM051100 VRB05KT P6SM BKN020=

USA.gov is the U.S. government's official web portal to all federal, state and local government web resources and services.